createdAt,value
2019-05-06T00:00:34.430Z,84.46
2019-05-06T00:01:33.971Z,84.65
2019-05-06T00:02:31.524Z,83.98
2019-05-06T00:03:30.087Z,84.27
2019-05-06T00:04:28.656Z,83.89
2019-05-06T00:05:27.204Z,82.93
2019-05-06T00:06:25.976Z,82.84
2019-05-06T00:07:24.528Z,82.56
2019-05-06T00:08:23.635Z,83.03
2019-05-06T00:09:23.883Z,82.46
2019-05-06T00:10:20.509Z,82.46
2019-05-06T00:11:19.045Z,81.98
2019-05-06T00:12:17.585Z,82.08
2019-05-06T00:13:16.197Z,82.46
2019-05-06T00:14:14.710Z,82.75
2019-05-06T00:15:14.466Z,82.37
2019-05-06T00:16:14.128Z,82.84
2019-05-06T00:17:10.792Z,82.46
2019-05-06T00:18:09.492Z,83.22
2019-05-06T00:19:08.157Z,83.18
2019-05-06T00:20:06.679Z,83.56
2019-05-06T00:21:05.288Z,83.75
2019-05-06T00:22:04.698Z,84.04
2019-05-06T00:23:04.188Z,84.7
2019-05-06T00:24:01.136Z,84.61
2019-05-06T00:24:59.751Z,85.08
2019-05-06T00:25:58.459Z,85.56
2019-05-06T00:26:57.715Z,85.47
2019-05-06T00:27:55.712Z,84.99
2019-05-06T00:28:54.276Z,85.37
2019-05-06T00:29:54.930Z,85.66
2019-05-06T00:30:51.380Z,85.18
2019-05-06T00:31:49.964Z,84.89
2019-05-06T00:32:48.523Z,84.99
2019-05-06T00:33:47.062Z,84.42
2019-05-06T00:34:45.982Z,84.36
2019-05-06T00:35:45.005Z,84.17
2019-05-06T00:36:43.621Z,83.7
2019-05-06T00:37:44.130Z,83.61
2019-05-06T00:38:40.536Z,84.36
2019-05-06T00:39:39.132Z,83.8
2019-05-06T00:40:37.948Z,83.8
2019-05-06T00:41:36.717Z,83.61
2019-05-06T00:42:35.059Z,83.51
2019-05-06T00:43:34.465Z,83.32
2019-05-06T00:44:32.218Z,83.51
2019-05-06T00:45:30.762Z,83.22
2019-05-06T00:46:29.390Z,83.13
2019-05-06T00:47:28.097Z,83.13
2019-05-06T00:48:26.647Z,82.56
2019-05-06T00:49:25.181Z,82.37
2019-05-06T00:50:24.035Z,82.18
2019-05-06T00:51:24.130Z,82.08
2019-05-06T00:52:23.231Z,81.98
2019-05-06T00:53:20.014Z,82.46
2019-05-06T00:54:18.575Z,81.98
2019-05-06T00:55:17.108Z,82.37
2019-05-06T00:56:15.814Z,82.84
2019-05-06T00:57:14.361Z,82.46
2019-05-06T00:58:14.200Z,82.65
2019-05-06T00:59:11.795Z,83.03
2019-05-06T01:00:10.406Z,82.84
2019-05-06T01:01:08.987Z,82.75
2019-05-06T01:02:07.663Z,82.27
2019-05-06T01:03:06.305Z,83.22
2019-05-06T01:04:04.843Z,83.18
2019-05-06T01:05:04.469Z,83.13
2019-05-06T01:06:03.784Z,83.13
2019-05-06T01:07:00.544Z,83.47
2019-05-06T01:07:59.110Z,83.61
2019-05-06T01:08:57.964Z,83.37
2019-05-06T01:09:56.794Z,82.93
2019-05-06T01:10:55.410Z,83.18
2019-05-06T01:11:54.203Z,83.47
2019-05-06T01:12:54.391Z,83.85
2019-05-06T01:13:51.363Z,83.47
2019-05-06T01:14:50.095Z,83.65
2019-05-06T01:15:48.648Z,84.13
2019-05-06T01:16:47.365Z,84.61
2019-05-06T01:17:46.033Z,84.23
2019-05-06T01:18:44.596Z,84.17
2019-05-06T01:19:43.147Z,84.04
2019-05-06T01:20:41.732Z,84.08
2019-05-06T01:21:40.326Z,84.08
2019-05-06T01:22:38.891Z,84.27
2019-05-06T01:23:37.665Z,83.98
2019-05-06T01:24:36.374Z,84.08
2019-05-06T01:25:34.976Z,84.36
2019-05-06T01:26:33.923Z,84.46
2019-05-06T01:27:33.735Z,83.51
2019-05-06T01:28:30.847Z,83.7
2019-05-06T01:29:29.773Z,83.7
2019-05-06T01:30:28.425Z,84.17
2019-05-06T01:31:39.713Z,84.46
2019-05-06T01:32:25.785Z,84.17
2019-05-06T01:33:24.343Z,84.36
2019-05-06T01:34:24.454Z,83.85
2019-05-06T01:35:21.442Z,84.84
2019-05-06T01:36:20.185Z,84.36
2019-05-06T01:37:18.732Z,84.27
2019-05-06T01:38:17.408Z,84.33
2019-05-06T01:39:16.276Z,84.8
2019-05-06T01:40:15.057Z,84.99
2019-05-06T01:41:13.900Z,85.08
2019-05-06T01:42:13.838Z,85.28
2019-05-06T01:43:11.059Z,85.28
2019-05-06T01:44:09.791Z,86.04
2019-05-06T01:45:08.479Z,85.94
2019-05-06T01:46:07.040Z,85.94
2019-05-06T01:47:05.608Z,86.22
2019-05-06T01:48:04.242Z,85.94
2019-05-06T01:49:04.206Z,86.13
2019-05-06T01:50:01.564Z,86.22
2019-05-06T01:51:00.257Z,86.04
2019-05-06T01:51:58.833Z,85.56
2019-05-06T01:52:57.463Z,85.75
2019-05-06T01:53:56.121Z,85.85
2019-05-06T01:54:54.946Z,85.94
2019-05-06T01:55:54.555Z,86.13
2019-05-06T01:56:53.761Z,85.94
2019-05-06T01:57:50.948Z,86.22
2019-05-06T01:58:49.678Z,86.51
2019-05-06T01:59:48.221Z,86.51
2019-05-06T02:00:46.770Z,86.8
2019-05-06T02:01:56.721Z,86.99
2019-05-06T02:02:44.011Z,86.32
2019-05-06T02:03:44.148Z,86.32
2019-05-06T02:04:40.912Z,86.32
2019-05-06T02:05:39.465Z,86.8
2019-05-06T02:08:20.060Z,86.22
2019-05-06T02:09:18.605Z,86.51
2019-05-06T02:10:17.138Z,86.51
2019-05-06T02:11:15.804Z,86.61
2019-05-06T02:12:14.347Z,87.18
2019-05-06T02:13:14.207Z,87.04
2019-05-06T02:14:11.461Z,87.08
2019-05-06T02:15:10.218Z,87.13
2019-05-06T02:16:08.766Z,86.94
2019-05-06T02:17:07.447Z,86.94
2019-05-06T02:18:06.221Z,87.04
2019-05-06T02:19:04.791Z,86.94
2019-05-06T02:20:04.168Z,86.66
2019-05-06T02:21:01.962Z,86.47
2019-05-06T02:22:00.670Z,86.42
2019-05-06T02:22:59.220Z,85.94
2019-05-06T02:23:57.989Z,85.94
2019-05-06T02:24:56.539Z,85.85
2019-05-06T02:25:55.073Z,85.56
2019-05-06T02:26:54.365Z,85.94
2019-05-06T02:27:54.130Z,85.85
2019-05-06T02:30:15.773Z,85.85
2019-05-06T02:31:14.881Z,85.75
2019-05-06T02:32:25.451Z,85.28
2019-05-06T02:33:11.988Z,85.75
2019-05-06T02:34:10.572Z,85.8
2019-05-06T02:35:09.140Z,86.32
2019-05-06T02:36:07.902Z,86.22
2019-05-06T02:37:06.636Z,85.94
2019-05-06T02:38:05.246Z,85.37
2019-05-06T02:39:04.223Z,85.9
2019-05-06T02:40:04.037Z,85.85
2019-05-06T02:41:03.426Z,85.47
2019-05-06T02:42:00.085Z,86.22
2019-05-06T02:42:58.655Z,85.28
2019-05-06T02:43:57.644Z,85.66
2019-05-06T02:44:56.407Z,85.75
2019-05-06T02:45:55.002Z,86.13
2019-05-06T02:46:53.603Z,85.75
2019-05-06T02:47:53.719Z,86.04
2019-05-06T02:48:53.528Z,85.28
2019-05-06T02:49:49.413Z,85.47
2019-05-06T02:50:48.168Z,85.47
2019-05-06T02:51:46.801Z,85.37
2019-05-06T02:52:45.480Z,84.8
2019-05-06T02:53:44.157Z,84.52
2019-05-06T02:54:42.924Z,85.56
2019-05-06T02:55:43.000Z,84.89
2019-05-06T02:56:39.941Z,85.28
2019-05-06T02:57:38.466Z,85.18
2019-05-06T02:58:37.117Z,85.22
2019-05-06T02:59:35.959Z,85.13
2019-05-06T03:00:34.520Z,85.66
2019-05-06T03:01:33.963Z,85.85
2019-05-06T03:02:39.660Z,85.28
2019-05-06T03:03:33.337Z,85.03
2019-05-06T03:04:28.974Z,84.84
2019-05-06T03:05:27.539Z,84.61
2019-05-06T03:06:26.088Z,84.65
2019-05-06T03:07:24.669Z,84.84
2019-05-06T03:08:23.789Z,84.65
2019-05-06T03:09:23.262Z,85.47
2019-05-06T03:10:24.151Z,85.51
2019-05-06T03:11:19.252Z,86.13
2019-05-06T03:12:17.944Z,86.13
2019-05-06T03:13:16.547Z,86.04
2019-05-06T03:14:15.120Z,86.08
2019-05-06T03:15:16.579Z,85.85
2019-05-06T03:16:14.087Z,86.22
2019-05-06T03:17:13.638Z,87.08
2019-05-06T03:18:09.699Z,86.51
2019-05-06T03:19:08.373Z,86.32
2019-05-06T03:20:06.944Z,86.42
2019-05-06T03:21:05.599Z,86.13
2019-05-06T03:22:04.207Z,86.32
2019-05-06T03:23:03.701Z,86.32
2019-05-06T03:24:03.880Z,86.32
2019-05-06T03:24:59.921Z,86.61
2019-05-06T03:25:58.477Z,86.51
2019-05-06T03:26:57.296Z,86.42
2019-05-06T03:27:55.887Z,86.22
2019-05-06T03:28:54.453Z,86.32
2019-05-06T03:29:53.609Z,86.42
2019-05-06T03:30:56.154Z,86.32
2019-05-06T03:31:55.648Z,86.32
2019-05-06T03:33:23.105Z,86.08
2019-05-06T03:34:05.577Z,86.18
2019-05-06T03:35:07.330Z,86.18
2019-05-06T03:36:00.145Z,85.7
2019-05-06T03:36:48.241Z,86.18
2019-05-06T03:37:43.979Z,85.8
2019-05-06T03:38:43.121Z,85.8
2019-05-06T03:39:39.679Z,86.08
2019-05-06T03:40:41.914Z,85.13
2019-05-06T03:41:36.903Z,85.13
2019-05-06T03:42:35.550Z,85.51
2019-05-06T03:43:34.253Z,85.41
2019-05-06T03:44:33.115Z,85.13
2019-05-06T03:45:33.438Z,85.03
2019-05-06T03:46:30.215Z,84.65
2019-05-06T03:47:28.768Z,84.84
2019-05-06T03:48:27.308Z,84.56
2019-05-06T03:49:26.111Z,85.03
2019-05-06T03:50:24.724Z,85.22
2019-05-06T03:51:23.489Z,84.84
2019-05-06T03:52:23.156Z,84.65
2019-05-06T03:53:23.224Z,85.32
2019-05-06T03:54:19.670Z,85.13
2019-05-06T03:55:18.328Z,85.03
2019-05-06T03:56:19.609Z,85.13
2019-05-06T03:57:15.612Z,85.89
2019-05-06T03:58:14.292Z,86.18
2019-05-06T03:59:13.374Z,85.8
2019-05-06T04:00:12.928Z,86.08
2019-05-06T04:01:12.825Z,86.36
2019-05-06T04:02:08.766Z,86.65
2019-05-06T04:03:07.512Z,86.46
2019-05-06T04:04:06.228Z,86.75
2019-05-06T04:05:04.779Z,87.03
2019-05-06T04:06:04.378Z,87.89
2019-05-06T04:07:03.321Z,87.89
2019-05-06T04:08:03.476Z,88.37
2019-05-06T04:08:59.057Z,88.46
2019-05-06T04:09:57.593Z,88.27
2019-05-06T04:10:56.114Z,88.18
2019-05-06T04:11:54.729Z,88.75
2019-05-06T04:12:53.871Z,89.32
2019-05-06T04:13:53.415Z,88.84
2019-05-06T04:14:53.633Z,89.03
2019-05-06T04:15:49.252Z,88.56
2019-05-06T04:16:47.973Z,88.27
2019-05-06T04:17:46.618Z,88.27
2019-05-06T04:18:45.142Z,87.89
2019-05-06T04:19:43.844Z,87.79
2019-05-06T04:20:43.531Z,87.79
2019-05-06T04:21:43.413Z,88.08
2019-05-06T04:22:39.573Z,87.6
2019-05-06T04:23:38.265Z,87.98
2019-05-06T04:24:36.826Z,87.79
2019-05-06T04:25:35.690Z,87.89
2019-05-06T04:26:34.298Z,87.79
2019-05-06T04:27:33.474Z,87.13
2019-05-06T04:28:34.065Z,86.84
2019-05-06T04:29:33.031Z,87.13
2019-05-06T04:30:28.679Z,87.13
2019-05-06T04:31:27.357Z,87.13
2019-05-06T04:32:26.270Z,87.13
2019-05-06T04:33:24.832Z,87.13
2019-05-06T04:34:23.612Z,86.94
2019-05-06T04:35:22.916Z,87.03
2019-05-06T04:36:23.484Z,87.32
2019-05-06T04:37:19.107Z,87.75
2019-05-06T04:38:17.919Z,88.32
2019-05-06T04:39:16.471Z,88.08
2019-05-06T04:40:15.049Z,88.6
2019-05-06T04:41:13.837Z,88.65
2019-05-06T04:42:13.658Z,88.84
2019-05-06T04:43:13.289Z,88.18
2019-05-06T04:44:09.629Z,87.7
2019-05-06T04:45:08.330Z,88.56
2019-05-06T04:46:06.875Z,87.7
2019-05-06T04:47:05.680Z,88.08
2019-05-06T04:48:04.333Z,88.46
2019-05-06T04:49:03.930Z,88.27
2019-05-06T04:50:04.725Z,88.18
2019-05-06T04:51:03.058Z,88.46
2019-05-06T04:51:58.768Z,87.55
2019-05-06T04:52:57.417Z,87.89
2019-05-06T04:53:56.230Z,87.51
2019-05-06T04:54:54.855Z,87.32
2019-05-06T04:55:54.121Z,87.89
2019-05-06T04:56:53.522Z,88.46
2019-05-06T04:57:53.396Z,88.84
2019-05-06T04:58:49.400Z,88.46
2019-05-06T04:59:48.172Z,88.51
2019-05-06T05:00:47.101Z,88.65
2019-05-06T05:01:45.948Z,88.56
2019-05-06T05:02:46.333Z,89.32
2019-05-06T05:03:43.017Z,89.13
2019-05-06T05:04:43.212Z,89.22
2019-05-06T05:05:40.529Z,88.7
2019-05-06T05:06:39.126Z,89.07
2019-05-06T05:09:19.335Z,88.41
2019-05-06T05:10:17.899Z,88.51
2019-05-06T05:11:16.493Z,88.51
2019-05-06T05:12:15.057Z,87.65
2019-05-06T05:13:13.871Z,86.69
2019-05-06T05:14:13.342Z,88.98
2019-05-06T05:15:11.811Z,90.03
2019-05-06T05:16:09.786Z,91.46
2019-05-06T05:17:08.415Z,90.79
2019-05-06T05:18:07.221Z,99.99
2019-05-06T05:19:06.038Z,99.99
2019-05-06T05:20:04.587Z,99.99
2019-05-06T05:21:03.120Z,99.99
2019-05-06T05:22:02.822Z,97.84
2019-05-06T05:23:02.259Z,99.99
2019-05-06T05:23:59.134Z,95.22
2019-05-06T05:24:57.797Z,94.65
2019-05-06T05:25:56.383Z,98.56
2019-05-06T05:26:55.025Z,97.51
2019-05-06T05:27:53.666Z,91.13
2019-05-06T05:28:53.205Z,91.41
2019-05-06T05:29:52.159Z,92.27
2019-05-06T05:33:32.496Z,99.99
2019-05-06T05:34:37.879Z,99.99
2019-05-06T05:35:27.489Z,94.41
2019-05-06T05:36:26.154Z,95.08
2019-05-06T05:37:24.731Z,99.99
2019-05-06T05:38:23.285Z,99.99
2019-05-06T05:39:22.334Z,99.99
2019-05-06T05:40:22.437Z,98.9
2019-05-06T05:41:19.054Z,95.56
2019-05-06T05:42:17.823Z,96.51
2019-05-06T05:43:16.630Z,97.66
2019-05-06T05:44:15.178Z,98.22
2019-05-06T05:45:13.731Z,98.32
2019-05-06T05:46:12.671Z,95.94
2019-05-06T05:47:12.328Z,95.46
2019-05-06T05:48:12.280Z,94.12
2019-05-06T05:49:08.783Z,93.65
2019-05-06T05:50:07.427Z,93.84
2019-05-06T05:51:06.275Z,94.41
2019-05-06T05:52:04.770Z,92.5
2019-05-06T05:53:03.435Z,93.65
2019-05-06T05:54:02.374Z,93.65
2019-05-06T05:55:02.688Z,92.32
2019-05-06T05:55:59.397Z,90.88
2019-05-06T05:56:57.969Z,90.03
2019-05-06T05:57:56.613Z,92.6
2019-05-06T05:58:55.186Z,93.08
2019-05-06T05:59:53.984Z,92.12
2019-05-06T06:00:52.583Z,92.41
2019-05-06T06:01:52.867Z,92.41
2019-05-06T06:02:52.766Z,92.88
2019-05-06T06:03:48.598Z,92.79
2019-05-06T06:04:54.633Z,92.22
2019-05-06T06:05:46.110Z,92.88
2019-05-06T06:06:45.189Z,92.69
2019-05-06T06:07:43.717Z,92.88
2019-05-06T06:08:43.057Z,92.6
2019-05-06T06:09:41.837Z,94.03
2019-05-06T06:10:39.634Z,96.27
2019-05-06T06:11:38.394Z,99.99
2019-05-06T06:12:36.938Z,99.99
2019-05-06T06:13:35.533Z,99.99
2019-05-06T06:14:34.211Z,99.99
2019-05-06T06:15:32.973Z,98.08
2019-05-06T06:16:32.806Z,99.99
2019-05-06T06:19:12.677Z,99.99
2019-05-06T06:20:12.164Z,99.99
2019-05-06T06:21:18.413Z,99.99
2019-05-06T06:22:07.588Z,99.99
2019-05-06T06:23:06.240Z,99.99
2019-05-06T06:24:04.817Z,99.99
2019-05-06T06:26:05.567Z,99.99
2019-05-06T06:28:29.951Z,99.52
2019-05-06T06:29:28.651Z,97.61
2019-05-06T06:30:27.192Z,99.71
2019-05-06T06:31:26.058Z,95.7
2019-05-06T06:32:24.609Z,96.37
2019-05-06T06:33:23.159Z,93.21
2019-05-06T06:34:22.325Z,91.02
2019-05-06T06:35:22.739Z,94.55
2019-05-06T06:36:19.219Z,99.52
2019-05-06T06:37:17.784Z,94.17
2019-05-06T06:38:16.316Z,95.32
2019-05-06T06:39:14.856Z,98.37
2019-05-06T06:40:13.713Z,94.07
2019-05-06T06:42:12.613Z,94.93
2019-05-06T06:43:09.647Z,95.12
2019-05-06T06:44:08.303Z,96.17
2019-05-06T06:45:06.931Z,96.13
2019-05-06T06:46:09.187Z,96.32
2019-05-06T06:47:04.539Z,95.27
2019-05-06T06:48:03.237Z,94.6
2019-05-06T06:49:03.199Z,91.83
2019-05-06T06:50:02.605Z,90.06
2019-05-06T06:50:58.999Z,90.25
2019-05-06T06:51:57.569Z,89.68
2019-05-06T06:52:56.305Z,91.21
2019-05-06T06:53:54.859Z,91.74
2019-05-06T06:54:53.529Z,92.93
2019-05-06T06:55:52.400Z,88.15
2019-05-06T06:57:03.084Z,86.76
2019-05-06T06:57:51.477Z,86.71
2019-05-06T06:58:48.075Z,87.38
2019-05-06T06:59:46.624Z,86.52
2019-05-06T07:00:45.174Z,86.14
2019-05-06T07:01:43.815Z,88.05
2019-05-06T07:02:43.209Z,83.17
2019-05-06T07:03:43.051Z,87.19
2019-05-06T07:04:39.882Z,93.93
2019-05-06T07:05:38.621Z,92.21
2019-05-06T07:06:37.249Z,92.88
2019-05-06T07:07:43.304Z,88.67
2019-05-06T07:08:37.467Z,84.88
2019-05-06T07:09:32.966Z,88.71
2019-05-06T07:10:32.381Z,92.25
2019-05-06T07:11:30.382Z,89.9
2019-05-06T07:12:28.929Z,88.47
2019-05-06T07:13:27.561Z,91.92
2019-05-06T07:14:26.375Z,95.17
2019-05-06T07:15:25.049Z,90.82
2019-05-06T07:16:23.791Z,93.21
2019-05-06T07:17:22.855Z,96.47
2019-05-06T07:18:22.535Z,86.51
2019-05-06T07:19:20.656Z,83.06
2019-05-06T07:20:19.189Z,86.41
2019-05-06T07:21:17.843Z,90.82
2019-05-06T07:22:16.383Z,97.61
2019-05-06T07:23:14.944Z,94.93
2019-05-06T07:24:13.645Z,96.47
2019-05-06T07:25:12.786Z,86.8
2019-05-06T07:26:12.089Z,90.05
2019-05-06T07:27:09.479Z,95.89
2019-05-06T07:28:08.312Z,95.79
2019-05-06T07:29:14.074Z,93.21
2019-05-06T07:30:05.500Z,83.64
2019-05-06T07:31:17.019Z,81.63
2019-05-06T07:32:02.811Z,81.96
2019-05-06T07:33:03.427Z,88.33
2019-05-06T07:33:59.793Z,89.38
2019-05-06T07:34:58.513Z,90.15
2019-05-06T07:35:57.024Z,85.55
2019-05-06T07:36:55.895Z,86.08
2019-05-06T07:37:54.677Z,84.08
2019-05-06T07:38:53.229Z,80.06
2019-05-06T07:39:52.846Z,75.09
2019-05-06T07:40:52.800Z,72.79
2019-05-06T07:41:49.240Z,72.25
2019-05-06T07:42:48.245Z,71.87
2019-05-06T07:43:46.826Z,71.87
2019-05-06T07:44:45.371Z,79.81
2019-05-06T07:45:44.215Z,77.23
2019-05-06T07:46:42.840Z,73.72
2019-05-06T07:47:42.568Z,75.93
2019-05-06T07:48:40.130Z,75.7
2019-05-06T07:49:38.695Z,72.25
2019-05-06T07:50:37.238Z,75.6
2019-05-06T07:51:35.801Z,77.57
2019-05-06T07:52:34.410Z,78.72
2019-05-06T07:53:32.973Z,78.81
2019-05-06T07:54:32.937Z,80.63
2019-05-06T07:55:32.537Z,80.25
2019-05-06T07:56:29.136Z,77.51
2019-05-06T07:57:27.872Z,73.97
2019-05-06T07:58:26.411Z,71.58
2019-05-06T07:59:25.018Z,72.44
2019-05-06T08:00:23.587Z,72.06
2019-05-06T08:01:25.832Z,71.87
2019-05-06T08:02:22.840Z,71.42
2019-05-06T08:03:22.007Z,71.42
2019-05-06T08:04:18.576Z,82.43
2019-05-06T08:05:17.243Z,80.19
2019-05-06T08:06:16.056Z,83.36
2019-05-06T08:07:14.632Z,80.87
2019-05-06T08:08:13.168Z,78.13
2019-05-06T08:09:12.893Z,76.4
2019-05-06T08:10:10.553Z,74.4
2019-05-06T08:11:09.153Z,76.02
2019-05-06T08:12:07.771Z,87.61
2019-05-06T08:13:06.466Z,89.14
2019-05-06T08:14:05.057Z,89.81
2019-05-06T08:15:05.537Z,87.03
2019-05-06T08:16:02.717Z,86.65
2019-05-06T08:17:02.200Z,87.51
2019-05-06T08:17:59.820Z,82.67
2019-05-06T08:18:58.343Z,87.17
2019-05-06T08:19:56.912Z,89.62
2019-05-06T08:20:55.800Z,86.94
2019-05-06T08:21:54.537Z,81.43
2019-05-06T08:22:56.345Z,76.79
2019-05-06T08:23:52.234Z,72
2019-05-06T08:24:50.293Z,70.47
2019-05-06T08:25:48.867Z,80.66
2019-05-06T08:26:47.418Z,76.73
2019-05-06T08:27:49.115Z,73.76
2019-05-06T08:28:44.800Z,71.94
2019-05-06T08:29:43.396Z,72.77
2019-05-06T08:30:43.006Z,74.4
2019-05-06T08:31:42.857Z,73.15
2019-05-06T08:32:39.474Z,76.27
2019-05-06T08:36:18.234Z,75.27
2019-05-06T08:37:16.800Z,77.23
2019-05-06T08:38:15.410Z,75.6
2019-05-06T08:39:14.310Z,73.88
2019-05-06T08:40:12.870Z,75.7
2019-05-06T08:41:11.868Z,77.99
2019-05-06T08:42:10.252Z,72.48
2019-05-06T08:43:08.847Z,72.96
2019-05-06T08:44:07.559Z,78.7
2019-05-06T08:45:07.153Z,74.2
2019-05-06T08:46:04.970Z,73.72
2019-05-06T08:47:03.551Z,76.5
2019-05-06T08:48:02.929Z,79.85
2019-05-06T08:49:02.736Z,83.2
2019-05-06T08:49:59.256Z,88.28
2019-05-06T08:50:58.177Z,84.35
2019-05-06T08:51:56.785Z,79.32
2019-05-06T08:52:55.387Z,74.68
2019-05-06T08:53:53.971Z,83.49
2019-05-06T08:54:52.717Z,84.45
2019-05-06T08:55:52.856Z,85.83
2019-05-06T08:56:49.768Z,79.8
2019-05-06T09:04:18.305Z,83.53
2019-05-06T09:05:16.846Z,79.41
2019-05-06T09:06:26.254Z,76.35
2019-05-06T09:07:13.965Z,73.86
2019-05-06T09:08:13.670Z,71.84
2019-05-06T09:09:12.955Z,72.13
2019-05-06T09:10:09.980Z,72.99
2019-05-06T09:11:08.672Z,68.21
2019-05-06T09:12:07.237Z,73.38
2019-05-06T09:13:05.975Z,75.68
2019-05-06T09:14:04.538Z,77.97
2019-05-06T09:15:03.580Z,76.35
2019-05-06T09:16:02.455Z,73.57
2019-05-06T09:17:02.583Z,70.7
2019-05-06T09:17:59.045Z,66.38
2019-05-06T09:18:57.935Z,65.14
2019-05-06T09:19:56.670Z,72.52
2019-05-06T09:20:55.220Z,72.23
2019-05-06T09:21:54.154Z,74.62
2019-05-06T09:22:52.712Z,70.5
2019-05-06T09:23:53.060Z,72.99
2019-05-06T09:24:50.051Z,66.29
2019-05-06T09:25:48.657Z,62.55
2019-05-06T09:26:47.218Z,69.74
2019-05-06T09:27:45.785Z,75.58
2019-05-06T09:28:44.372Z,73.86
2019-05-06T09:29:43.196Z,68.78
2019-05-06T09:30:43.192Z,78.07
2019-05-06T09:31:42.548Z,80.56
2019-05-06T09:32:38.937Z,75.39
2019-05-06T09:33:37.814Z,78.7
2019-05-06T09:34:36.417Z,80.04
2019-05-06T09:35:35.220Z,71.71
2019-05-06T09:36:43.665Z,69.13
2019-05-06T09:37:32.712Z,67.98
2019-05-06T09:38:32.139Z,69.32
2019-05-06T09:39:32.150Z,73.34
2019-05-06T09:40:28.540Z,73.05
2019-05-06T09:41:27.107Z,73.66
2019-05-06T09:42:25.982Z,72.32
2019-05-06T09:43:24.654Z,70.66
2019-05-06T09:44:23.309Z,72.99
2019-05-06T09:45:22.752Z,78.51
2019-05-06T09:46:22.565Z,70.95
2019-05-06T09:47:19.089Z,69.89
2019-05-06T09:48:17.653Z,70.47
2019-05-06T09:49:16.457Z,70.85
2019-05-06T09:50:15.012Z,71.81
2019-05-06T09:51:13.613Z,73.34
2019-05-06T09:52:13.039Z,71.04
2019-05-06T09:53:13.073Z,74.58
2019-05-06T09:54:09.673Z,80.33
2019-05-06T09:55:08.206Z,76.6
2019-05-06T09:56:06.786Z,70.76
2019-05-06T09:57:05.316Z,79.75
2019-05-06T09:58:03.894Z,82.92
2019-05-06T09:59:02.489Z,79.18
2019-05-06T10:00:04.371Z,73.34
2019-05-06T10:01:02.112Z,71.42
2019-05-06T10:01:58.493Z,81.57
2019-05-06T10:02:57.078Z,84.58
2019-05-06T10:03:55.732Z,80.66
2019-05-06T10:04:54.396Z,69.7
2019-05-06T10:05:53.216Z,67.54
2019-05-06T10:06:56.917Z,64.63
2019-05-06T10:07:52.351Z,67.91
2019-05-06T10:08:49.231Z,73.57
2019-05-06T10:09:47.857Z,72.32
2019-05-06T10:10:55.531Z,71.4
2019-05-06T10:11:45.026Z,74.82
2019-05-06T10:12:43.887Z,80.94
2019-05-06T10:13:43.153Z,77.59
2019-05-06T10:14:43.246Z,77.02
2019-05-06T10:15:40.017Z,71.46
2019-05-06T10:16:38.601Z,65.81
2019-05-06T10:17:37.176Z,72.23
2019-05-06T10:18:36.081Z,77.46
2019-05-06T10:19:34.662Z,72.58
2019-05-06T10:20:33.237Z,72.09
2019-05-06T10:21:32.336Z,72.77
2019-05-06T10:22:32.421Z,76.98
2019-05-06T10:23:29.051Z,76.4
2019-05-06T10:24:27.694Z,73.91
2019-05-06T10:25:26.221Z,73.72
2019-05-06T10:26:24.822Z,70.98
2019-05-06T10:27:24.038Z,75.54
2019-05-06T10:28:23.348Z,72.96
2019-05-06T10:29:22.232Z,70.95
2019-05-06T10:30:19.743Z,73.5
2019-05-06T10:31:18.305Z,72.48
2019-05-06T10:32:16.862Z,74.45
2019-05-06T10:33:15.801Z,81.48
2019-05-06T10:34:14.593Z,72.96
2019-05-06T10:35:13.259Z,70.66
2019-05-06T10:36:12.948Z,82.43
2019-05-06T10:37:18.108Z,82.82
2019-05-06T10:38:09.549Z,76.82
2019-05-06T10:39:08.288Z,80.85
2019-05-06T10:40:06.851Z,73.38
2019-05-06T10:41:07.641Z,70.5
2019-05-06T10:42:04.237Z,69.74
2019-05-06T10:43:02.858Z,65.75
2019-05-06T10:44:02.962Z,66.32
2019-05-06T10:45:01.727Z,64.12
2019-05-06T10:46:01.069Z,66.51
2019-05-06T10:46:57.346Z,62.01
2019-05-06T10:47:56.011Z,62.87
2019-05-06T10:48:54.561Z,62.62
2019-05-06T10:49:53.132Z,62.3
2019-05-06T10:50:52.161Z,61.82
2019-05-06T10:51:52.844Z,61.66
2019-05-06T10:52:49.183Z,61.18
2019-05-06T10:53:47.930Z,58.97
2019-05-06T10:54:46.517Z,57.21
2019-05-06T10:55:45.114Z,59.26
2019-05-06T10:56:52.615Z,64.02
2019-05-06T10:57:43.055Z,61.43
2019-05-06T10:58:43.754Z,59.45
2019-05-06T10:59:39.664Z,57.6
2019-05-06T11:00:38.430Z,60.47
2019-05-06T11:01:37.069Z,60.7
2019-05-06T11:02:35.735Z,57.63
2019-05-06T11:03:34.282Z,55.68
2019-05-06T11:04:33.238Z,59.9
2019-05-06T11:05:32.506Z,60.76
2019-05-06T11:06:30.596Z,60.76
2019-05-06T11:07:32.042Z,61.34
2019-05-06T11:08:27.595Z,67.09
2019-05-06T11:09:26.281Z,68.62
2019-05-06T11:10:28.533Z,63.54
2019-05-06T11:11:32.419Z,67.18
2019-05-06T11:12:21.987Z,69.2
2019-05-06T11:13:20.485Z,72.61
2019-05-06T11:14:19.046Z,70.89
2019-05-06T11:15:17.873Z,68.91
2019-05-06T11:16:17.078Z,64.69
2019-05-06T11:17:15.149Z,62.39
2019-05-06T11:18:13.906Z,63.09
2019-05-06T11:19:13.254Z,67.76
2019-05-06T11:20:13.881Z,67.38
2019-05-06T11:21:09.907Z,69.29
2019-05-06T11:22:08.633Z,66.32
2019-05-06T11:23:07.201Z,67.66
2019-05-06T11:24:06.333Z,66.03
2019-05-06T11:25:04.578Z,64.4
2019-05-06T11:26:03.324Z,67.85
2019-05-06T11:27:03.342Z,66.71
2019-05-06T11:28:00.182Z,68.95
2019-05-06T11:28:58.746Z,59.9
2019-05-06T11:29:57.576Z,58.94
2019-05-06T11:30:56.448Z,64.43
2019-05-06T11:31:54.981Z,60.89
2019-05-06T11:32:54.741Z,57.43
2019-05-06T11:33:52.542Z,59.36
2019-05-06T11:34:52.578Z,61.98
2019-05-06T11:35:49.286Z,67.44
2019-05-06T11:36:48.218Z,70.03
2019-05-06T11:37:50.439Z,62.93
2019-05-06T11:38:48.280Z,59
2019-05-06T11:39:44.087Z,62.45
2019-05-06T11:40:42.834Z,67.41
2019-05-06T11:41:59.152Z,66.45
2019-05-06T11:42:40.326Z,69.42
2019-05-06T11:43:39.064Z,66.77
2019-05-06T11:44:37.758Z,69.04
2019-05-06T11:45:36.339Z,63
2019-05-06T11:46:34.898Z,60.72
2019-05-06T11:47:33.464Z,68.12
2019-05-06T11:48:32.766Z,63.89
2019-05-06T11:49:32.592Z,65.62
2019-05-06T11:50:29.408Z,63.79
2019-05-06T11:51:28.357Z,65.05
2019-05-06T11:52:26.941Z,66.19
2019-05-06T11:53:25.475Z,65.43
2019-05-06T11:54:24.607Z,63.79
2019-05-06T11:55:30.758Z,60.25
2019-05-06T11:56:23.015Z,56.31
2019-05-06T11:57:20.031Z,59.77
2019-05-06T11:58:18.622Z,62.87
2019-05-06T11:59:17.155Z,59.99
2019-05-06T12:00:15.868Z,59.89
2019-05-06T12:01:14.585Z,55.16
2019-05-06T12:02:13.169Z,57.5
2019-05-06T12:03:12.726Z,60.47
2019-05-06T12:04:10.470Z,61.21
2019-05-06T12:05:09.113Z,60.72
2019-05-06T12:06:07.893Z,60.05
2019-05-06T12:07:10.993Z,61.3
2019-05-06T12:08:08.148Z,57.37
2019-05-06T12:09:06.293Z,60.85
2019-05-06T12:10:02.590Z,58.84
2019-05-06T12:11:02.901Z,53.24
2019-05-06T12:11:59.742Z,52.19
2019-05-06T12:12:58.466Z,57.78
2019-05-06T12:13:57.025Z,57.01
2019-05-06T12:14:55.562Z,55.57
2019-05-06T12:15:54.257Z,52.69
2019-05-06T12:16:55.040Z,51.45
2019-05-06T12:17:53.391Z,58.94
2019-05-06T12:18:49.977Z,62.65
2019-05-06T12:19:48.617Z,60.82
2019-05-06T12:20:47.144Z,59.38
2019-05-06T12:21:45.958Z,63.22
2019-05-06T12:22:44.729Z,61.11
2019-05-06T12:23:44.759Z,58.14
2019-05-06T12:24:43.003Z,54.78
2019-05-06T12:25:45.177Z,53.03
2019-05-06T12:26:42.788Z,54.11
2019-05-06T12:27:39.229Z,57.75
2019-05-06T12:28:37.982Z,59.26
2019-05-06T12:29:38.348Z,57.43
2019-05-06T12:30:35.149Z,57.34
2019-05-06T12:31:34.058Z,60.19
2019-05-06T12:32:33.200Z,62.3
2019-05-06T12:33:32.874Z,58.84
2019-05-06T12:34:32.085Z,55.58
2019-05-06T12:35:28.610Z,54.15
2019-05-06T12:36:27.178Z,57.89
2019-05-06T12:37:25.769Z,53.48
2019-05-06T12:38:30.144Z,59.42
2019-05-06T12:39:23.221Z,66
2019-05-06T12:40:21.943Z,64.95
2019-05-06T12:41:22.968Z,62.39
2019-05-06T12:42:19.177Z,62.65
2019-05-06T12:43:17.821Z,62.46
2019-05-06T12:44:16.384Z,61.21
2019-05-06T12:45:14.937Z,61.94
2019-05-06T12:46:13.567Z,59.11
2019-05-06T12:47:13.364Z,57.57
2019-05-06T12:48:13.039Z,55.65
2019-05-06T12:49:09.503Z,55.65
2019-05-06T12:50:08.200Z,60.25
2019-05-06T12:51:06.786Z,62.84
2019-05-06T12:52:05.369Z,66.77
2019-05-06T12:53:03.902Z,64.95
2019-05-06T12:54:03.478Z,63.51
2019-05-06T12:55:16.681Z,62.49
2019-05-06T12:55:59.918Z,62.39
2019-05-06T12:56:58.620Z,62.1
2019-05-06T12:57:57.212Z,62.77
2019-05-06T12:58:55.845Z,60.79
2019-05-06T12:59:54.529Z,60.7